createdAt,value
2018-05-09T00:00:12.187Z,64.50
2018-05-09T00:01:12.126Z,64.31
2018-05-09T00:02:12.063Z,63.60
2018-05-09T00:03:12.003Z,63.83
2018-05-09T00:04:11.941Z,63.83
2018-05-09T00:05:11.878Z,63.35
2018-05-09T00:06:11.819Z,62.77
2018-05-09T00:07:11.757Z,62.49
2018-05-09T00:08:11.698Z,62.49
2018-05-09T00:09:11.632Z,62.30
2018-05-09T00:10:11.571Z,62.11
2018-05-09T00:11:11.511Z,62.30
2018-05-09T00:12:11.447Z,62.30
2018-05-09T00:13:11.387Z,62.20
2018-05-09T00:14:11.325Z,61.47
2018-05-09T00:15:11.261Z,61.47
2018-05-09T00:16:11.204Z,62.33
2018-05-09T00:17:11.144Z,62.77
2018-05-09T00:18:11.076Z,61.82
2018-05-09T00:19:11.016Z,62.59
2018-05-09T00:20:10.954Z,63.16
2018-05-09T00:21:10.893Z,63.16
2018-05-09T00:22:10.830Z,63.16
2018-05-09T00:23:10.767Z,63.16
2018-05-09T00:24:10.706Z,63.73
2018-05-09T00:25:10.645Z,63.06
2018-05-09T00:26:10.584Z,64.40
2018-05-09T00:27:10.526Z,64.79
2018-05-09T00:28:10.460Z,64.66
2018-05-09T00:29:10.397Z,64.85
2018-05-09T00:30:10.341Z,65.71
2018-05-09T00:31:10.274Z,65.42
2018-05-09T00:32:10.215Z,65.42
2018-05-09T00:33:10.150Z,64.95
2018-05-09T00:34:10.091Z,65.23
2018-05-09T00:35:10.028Z,66.09
2018-05-09T00:36:09.965Z,66.25
2018-05-09T00:37:09.904Z,66.44
2018-05-09T00:38:09.844Z,66.54
2018-05-09T00:39:09.780Z,66.63
2018-05-09T00:40:09.717Z,67.59
2018-05-09T00:41:09.660Z,67.11
2018-05-09T00:42:09.595Z,67.40
2018-05-09T00:43:09.533Z,67.30
2018-05-09T00:44:09.471Z,67.21
2018-05-09T00:45:09.409Z,67.30
2018-05-09T00:46:09.346Z,67.78
2018-05-09T00:47:09.286Z,68.07
2018-05-09T00:48:09.226Z,67.88
2018-05-09T00:49:09.159Z,68.45
2018-05-09T00:50:09.115Z,68.55
2018-05-09T00:51:09.037Z,68.61
2018-05-09T00:52:08.975Z,68.70
2018-05-09T00:53:08.914Z,68.51
2018-05-09T00:54:08.851Z,68.70
2018-05-09T00:55:08.791Z,68.90
2018-05-09T00:56:08.735Z,69.37
2018-05-09T00:57:08.669Z,69.09
2018-05-09T00:58:08.604Z,68.51
2018-05-09T00:59:08.541Z,68.80
2018-05-09T01:00:08.479Z,68.99
2018-05-09T01:01:08.418Z,68.70
2018-05-09T01:02:08.357Z,68.80
2018-05-09T01:03:08.296Z,68.90
2018-05-09T01:04:08.231Z,69.56
2018-05-09T01:05:08.171Z,69.66
2018-05-09T01:06:08.107Z,69.09
2018-05-09T01:07:08.045Z,69.27
2018-05-09T01:08:07.983Z,69.09
2018-05-09T01:09:07.924Z,68.99
2018-05-09T01:10:07.859Z,68.90
2018-05-09T01:11:07.796Z,68.32
2018-05-09T01:12:07.734Z,68.51
2018-05-09T01:13:07.672Z,68.99
2018-05-09T01:14:07.612Z,69.27
2018-05-09T01:15:07.554Z,68.99
2018-05-09T01:16:07.485Z,68.41
2018-05-09T01:17:07.423Z,69.18
2018-05-09T01:18:07.360Z,68.41
2018-05-09T01:19:07.301Z,69.37
2018-05-09T01:20:07.237Z,68.32
2018-05-09T01:21:07.173Z,68.41
2018-05-09T01:22:07.112Z,68.80
2018-05-09T01:23:07.051Z,69.18
2018-05-09T01:24:06.987Z,69.47
2018-05-09T01:25:06.926Z,69.56
2018-05-09T01:26:06.864Z,69.66
2018-05-09T01:27:06.801Z,69.66
2018-05-09T01:28:06.737Z,69.09
2018-05-09T01:29:06.675Z,69.37
2018-05-09T01:30:06.614Z,69.09
2018-05-09T01:31:06.552Z,69.56
2018-05-09T01:32:06.489Z,69.27
2018-05-09T01:33:06.426Z,69.66
2018-05-09T01:34:06.364Z,69.09
2018-05-09T01:35:06.301Z,68.90
2018-05-09T01:36:06.242Z,68.61
2018-05-09T01:37:06.175Z,69.37
2018-05-09T01:38:06.117Z,69.76
2018-05-09T01:39:06.054Z,69.37
2018-05-09T01:40:05.989Z,69.95
2018-05-09T01:41:05.927Z,69.27
2018-05-09T01:42:05.871Z,69.56
2018-05-09T01:43:05.805Z,69.76
2018-05-09T01:44:05.739Z,69.76
2018-05-09T01:45:05.677Z,69.95
2018-05-09T01:46:05.616Z,69.91
2018-05-09T01:47:05.552Z,70.04
2018-05-09T01:48:05.490Z,70.61
2018-05-09T01:49:05.429Z,70.61
2018-05-09T01:50:05.365Z,70.23
2018-05-09T01:51:05.305Z,70.33
2018-05-09T01:52:05.243Z,70.61
2018-05-09T01:53:05.182Z,69.95
2018-05-09T01:54:05.119Z,69.76
2018-05-09T01:55:05.055Z,70.81
2018-05-09T01:56:04.991Z,70.81
2018-05-09T01:57:04.934Z,70.81
2018-05-09T01:58:04.868Z,70.81
2018-05-09T01:59:04.804Z,70.39
2018-05-09T02:00:04.744Z,71.09
2018-05-09T02:01:04.678Z,71.72
2018-05-09T02:02:04.617Z,71.72
2018-05-09T02:03:04.555Z,71.82
2018-05-09T02:04:04.493Z,71.82
2018-05-09T02:05:04.430Z,71.34
2018-05-09T02:06:04.446Z,71.53
2018-05-09T02:07:04.304Z,71.34
2018-05-09T02:08:04.240Z,70.96
2018-05-09T02:09:04.180Z,71.44
2018-05-09T02:10:04.118Z,72.39
2018-05-09T02:11:04.054Z,71.82
2018-05-09T02:12:03.991Z,71.82
2018-05-09T02:13:03.931Z,71.44
2018-05-09T02:14:03.867Z,71.72
2018-05-09T02:15:03.806Z,72.11
2018-05-09T02:16:03.741Z,71.82
2018-05-09T02:17:03.679Z,71.63
2018-05-09T02:18:03.617Z,72.30
2018-05-09T02:19:03.554Z,72.20
2018-05-09T02:20:03.493Z,71.63
2018-05-09T02:21:03.430Z,71.72
2018-05-09T02:22:03.387Z,71.82
2018-05-09T02:23:03.305Z,72.20
2018-05-09T02:24:03.253Z,71.82
2018-05-09T02:25:03.180Z,72.11
2018-05-09T02:26:03.115Z,71.82
2018-05-09T02:27:03.054Z,72.39
2018-05-09T02:28:02.990Z,72.30
2018-05-09T02:29:02.929Z,71.72
2018-05-09T02:30:02.875Z,72.20
2018-05-09T02:31:02.857Z,72.58
2018-05-09T02:32:02.741Z,72.39
2018-05-09T02:33:02.679Z,72.97
2018-05-09T02:34:02.616Z,72.87
2018-05-09T02:35:02.554Z,73.16
2018-05-09T02:36:02.492Z,73.16
2018-05-09T02:37:02.429Z,73.07
2018-05-09T02:38:02.367Z,72.74
2018-05-09T02:39:02.304Z,72.93
2018-05-09T02:40:02.237Z,73.03
2018-05-09T02:41:02.180Z,72.45
2018-05-09T02:42:02.120Z,72.55
2018-05-09T02:43:02.054Z,72.26
2018-05-09T02:44:01.992Z,72.26
2018-05-09T02:45:01.937Z,72.55
2018-05-09T02:46:01.866Z,72.55
2018-05-09T02:47:01.802Z,73.32
2018-05-09T02:48:01.746Z,73.41
2018-05-09T02:49:01.683Z,73.60
2018-05-09T02:50:01.745Z,73.12
2018-05-09T02:51:01.555Z,72.55
2018-05-09T02:52:01.490Z,72.45
2018-05-09T02:53:01.429Z,72.26
2018-05-09T02:54:01.365Z,71.78
2018-05-09T02:55:01.302Z,72.26
2018-05-09T02:56:01.241Z,72.45
2018-05-09T02:57:01.177Z,72.64
2018-05-09T02:58:01.114Z,73.12
2018-05-09T02:59:01.054Z,73.50
2018-05-09T03:00:00.989Z,73.03
2018-05-09T03:01:00.929Z,72.64
2018-05-09T03:02:00.866Z,73.12
2018-05-09T03:03:00.804Z,73.03
2018-05-09T03:04:00.738Z,73.98
2018-05-09T03:05:00.676Z,73.22
2018-05-09T03:06:00.611Z,73.32
2018-05-09T03:07:00.550Z,73.98
2018-05-09T03:08:00.486Z,73.03
2018-05-09T03:09:00.423Z,73.03
2018-05-09T03:10:00.360Z,73.50
2018-05-09T03:11:00.297Z,73.35
2018-05-09T03:12:00.233Z,73.35
2018-05-09T03:13:00.174Z,72.74
2018-05-09T03:14:00.110Z,72.83
2018-05-09T03:15:00.046Z,72.93
2018-05-09T03:15:59.983Z,73.32
2018-05-09T03:16:59.925Z,73.32
2018-05-09T03:17:59.858Z,72.74
2018-05-09T03:18:59.798Z,73.32
2018-05-09T03:19:59.732Z,73.32
2018-05-09T03:20:59.670Z,73.22
2018-05-09T03:21:59.606Z,73.22
2018-05-09T03:22:59.544Z,73.12
2018-05-09T03:23:59.480Z,72.55
2018-05-09T03:24:59.418Z,73.22
2018-05-09T03:25:59.351Z,72.93
2018-05-09T03:26:59.292Z,72.93
2018-05-09T03:27:59.228Z,73.12
2018-05-09T03:28:59.164Z,73.12
2018-05-09T03:29:59.104Z,73.32
2018-05-09T03:30:59.044Z,72.74
2018-05-09T03:31:58.978Z,73.12
2018-05-09T03:32:58.915Z,73.79
2018-05-09T03:33:58.855Z,74.37
2018-05-09T03:34:58.791Z,74.17
2018-05-09T03:35:58.727Z,74.08
2018-05-09T03:36:58.664Z,74.17
2018-05-09T03:37:58.604Z,74.27
2018-05-09T03:38:58.538Z,73.79
2018-05-09T03:39:58.474Z,74.17
2018-05-09T03:40:58.412Z,73.79
2018-05-09T03:41:58.349Z,74.11
2018-05-09T03:42:58.287Z,74.08
2018-05-09T03:43:58.222Z,73.88
2018-05-09T03:44:58.161Z,73.32
2018-05-09T03:45:58.099Z,72.97
2018-05-09T03:46:58.036Z,73.54
2018-05-09T03:47:57.980Z,74.30
2018-05-09T03:48:57.911Z,72.97
2018-05-09T03:49:57.847Z,74.11
2018-05-09T03:50:57.784Z,73.92
2018-05-09T03:51:57.720Z,73.88
2018-05-09T03:52:57.658Z,73.54
2018-05-09T03:53:57.594Z,73.79
2018-05-09T03:54:57.533Z,73.25
2018-05-09T03:55:57.470Z,73.16
2018-05-09T03:56:57.404Z,72.97
2018-05-09T03:57:57.343Z,73.16
2018-05-09T03:58:57.282Z,74.11
2018-05-09T03:59:57.217Z,73.73
2018-05-09T04:00:57.165Z,73.83
2018-05-09T04:01:57.094Z,73.54
2018-05-09T04:02:57.029Z,73.16
2018-05-09T04:03:56.967Z,73.44
2018-05-09T04:04:56.904Z,73.92
2018-05-09T04:05:56.840Z,73.83
2018-05-09T04:06:56.777Z,73.92
2018-05-09T04:07:56.713Z,74.21
2018-05-09T04:08:56.651Z,74.08
2018-05-09T04:09:56.588Z,73.88
2018-05-09T04:10:56.525Z,74.11
2018-05-09T04:11:56.462Z,74.46
2018-05-09T04:12:56.401Z,74.84
2018-05-09T04:13:56.335Z,73.98
2018-05-09T04:14:56.310Z,75.03
2018-05-09T04:15:56.211Z,74.74
2018-05-09T04:16:56.148Z,74.55
2018-05-09T04:17:56.084Z,74.46
2018-05-09T04:18:56.024Z,74.17
2018-05-09T04:19:55.960Z,74.46
2018-05-09T04:20:55.983Z,74.40
2018-05-09T04:21:55.832Z,74.84
2018-05-09T04:22:55.769Z,74.98
2018-05-09T04:23:55.706Z,74.98
2018-05-09T04:24:55.644Z,74.93
2018-05-09T04:25:55.583Z,74.88
2018-05-09T04:26:55.519Z,75.16
2018-05-09T04:27:55.988Z,74.84
2018-05-09T04:28:55.392Z,75.03
2018-05-09T04:29:55.989Z,74.84
2018-05-09T04:30:55.267Z,74.74
2018-05-09T04:31:55.203Z,74.49
2018-05-09T04:32:55.988Z,75.16
2018-05-09T04:33:55.076Z,74.98
2018-05-09T04:34:55.016Z,73.98
2018-05-09T04:35:54.953Z,74.21
2018-05-09T04:36:54.890Z,74.11
2018-05-09T04:37:54.831Z,74.21
2018-05-09T04:38:55.492Z,73.92
2018-05-09T04:39:55.493Z,74.21
2018-05-09T04:40:54.637Z,74.21
2018-05-09T04:41:55.607Z,73.73
2018-05-09T04:42:54.513Z,73.16
2018-05-09T04:43:54.450Z,73.25
2018-05-09T04:44:54.385Z,72.87
2018-05-09T04:45:54.325Z,73.16
2018-05-09T04:46:54.260Z,73.16
2018-05-09T04:47:54.197Z,73.54
2018-05-09T04:48:54.998Z,72.33
2018-05-09T04:49:54.992Z,72.68
2018-05-09T04:50:54.993Z,72.81
2018-05-09T04:51:54.499Z,73.19
2018-05-09T04:52:53.885Z,73.19
2018-05-09T04:53:53.820Z,72.53
2018-05-09T04:54:53.757Z,72.43
2018-05-09T04:55:53.693Z,73.39
2018-05-09T04:56:53.634Z,72.72
2018-05-09T04:57:54.497Z,72.62
2018-05-09T04:58:53.505Z,72.24
2018-05-09T04:59:53.443Z,72.72
2018-05-09T05:00:53.994Z,72.14
2018-05-09T05:01:53.321Z,72.43
2018-05-09T05:02:53.254Z,73.39
2018-05-09T05:03:53.191Z,73.19
2018-05-09T05:04:53.127Z,73.00
2018-05-09T05:05:53.997Z,73.58
2018-05-09T05:06:53.995Z,72.43
2018-05-09T05:07:52.943Z,72.53
2018-05-09T05:08:52.877Z,72.33
2018-05-09T05:09:53.504Z,72.81
2018-05-09T05:10:52.755Z,72.53
2018-05-09T05:11:53.570Z,72.43
2018-05-09T05:12:53.503Z,72.72
2018-05-09T05:13:53.498Z,72.66
2018-05-09T05:14:53.010Z,73.04
2018-05-09T05:15:53.001Z,73.61
2018-05-09T05:16:52.377Z,72.75
2018-05-09T05:17:52.315Z,72.08
2018-05-09T05:18:52.252Z,72.28
2018-05-09T05:19:52.188Z,72.56
2018-05-09T05:20:52.127Z,71.89
2018-05-09T05:21:52.064Z,72.56
2018-05-09T05:22:52.499Z,71.13
2018-05-09T05:23:51.939Z,71.99
2018-05-09T05:24:51.876Z,71.89
2018-05-09T05:25:52.512Z,71.89
2018-05-09T05:26:51.756Z,71.51
2018-05-09T05:27:52.499Z,71.70
2018-05-09T05:28:51.628Z,71.80
2018-05-09T05:29:51.564Z,71.32
2018-05-09T05:30:51.501Z,71.83
2018-05-09T05:31:51.441Z,70.40
2018-05-09T05:32:51.404Z,71.07
2018-05-09T05:33:51.315Z,71.07
2018-05-09T05:34:51.257Z,71.07
2018-05-09T05:35:51.190Z,71.26
2018-05-09T05:36:51.128Z,70.97
2018-05-09T05:37:52.003Z,71.36
2018-05-09T05:38:51.073Z,70.40
2018-05-09T05:39:50.941Z,70.59
2018-05-09T05:40:51.504Z,70.50
2018-05-09T05:41:51.503Z,70.21
2018-05-09T05:42:51.579Z,70.11
2018-05-09T05:43:51.503Z,70.34
2018-05-09T05:44:50.640Z,70.34
2018-05-09T05:45:50.567Z,70.34
2018-05-09T05:46:50.511Z,70.34
2018-05-09T05:47:50.443Z,70.05
2018-05-09T05:48:50.380Z,70.15
2018-05-09T05:49:51.006Z,69.29
2018-05-09T05:50:51.009Z,69.57
2018-05-09T05:51:51.015Z,70.15
2018-05-09T05:52:51.007Z,70.24
2018-05-09T05:53:50.109Z,70.05
2018-05-09T05:54:50.038Z,69.95
2018-05-09T05:55:49.981Z,70.24
2018-05-09T05:56:49.956Z,70.05
2018-05-09T05:57:49.909Z,69.48
2018-05-09T05:58:49.762Z,69.57
2018-05-09T05:59:49.770Z,69.42
2018-05-09T06:00:49.638Z,69.60
2018-05-09T06:01:49.636Z,69.76
2018-05-09T06:02:49.515Z,69.19
2018-05-09T06:03:49.459Z,69.51
2018-05-09T06:04:50.012Z,69.60
2018-05-09T06:05:49.328Z,69.13
2018-05-09T06:06:49.340Z,69.13
2018-05-09T06:07:49.257Z,68.94
2018-05-09T06:08:49.143Z,69.13
2018-05-09T06:09:49.079Z,68.94
2018-05-09T06:10:49.018Z,68.84
2018-05-09T06:11:48.959Z,68.94
2018-05-09T06:12:48.895Z,68.84
2018-05-09T06:13:48.833Z,68.46
2018-05-09T06:14:48.771Z,68.55
2018-05-09T06:15:48.709Z,68.78
2018-05-09T06:16:48.649Z,68.30
2018-05-09T06:17:48.587Z,68.01
2018-05-09T06:18:48.525Z,67.15
2018-05-09T06:19:48.462Z,67.91
2018-05-09T06:20:48.401Z,67.63
2018-05-09T06:21:48.339Z,67.15
2018-05-09T06:22:48.276Z,66.48
2018-05-09T06:23:48.236Z,67.05
2018-05-09T06:24:48.153Z,66.32
2018-05-09T06:25:48.094Z,65.62
2018-05-09T06:26:48.031Z,66.29
2018-05-09T06:27:47.972Z,66.77
2018-05-09T06:28:47.909Z,66.67
2018-05-09T06:29:47.847Z,66.58
2018-05-09T06:30:47.786Z,66.03
2018-05-09T06:31:47.721Z,66.03
2018-05-09T06:32:47.662Z,65.75
2018-05-09T06:33:47.601Z,65.75
2018-05-09T06:34:47.541Z,65.46
2018-05-09T06:35:47.478Z,65.65
2018-05-09T06:36:47.416Z,65.65
2018-05-09T06:37:47.399Z,65.94
2018-05-09T06:38:47.301Z,65.36
2018-05-09T06:39:47.231Z,64.79
2018-05-09T06:40:47.195Z,65.46
2018-05-09T06:41:47.240Z,65.75
2018-05-09T06:42:47.047Z,65.84
2018-05-09T06:43:47.044Z,65.46
2018-05-09T06:44:46.924Z,65.46
2018-05-09T06:45:46.865Z,65.46
2018-05-09T06:46:46.805Z,65.55
2018-05-09T06:47:46.741Z,65.46
2018-05-09T06:48:46.681Z,64.40
2018-05-09T06:49:46.622Z,64.79
2018-05-09T06:50:46.561Z,64.72
2018-05-09T06:51:46.502Z,64.63
2018-05-09T06:52:46.435Z,64.15
2018-05-09T06:53:46.376Z,63.86
2018-05-09T06:54:46.317Z,64.34
2018-05-09T06:55:46.252Z,63.86
2018-05-09T06:56:46.191Z,64.34
2018-05-09T06:57:46.129Z,63.48
2018-05-09T06:58:46.068Z,63.76
2018-05-09T06:59:46.006Z,63.19
2018-05-09T07:00:45.948Z,64.05
2018-05-09T07:01:45.885Z,63.19
2018-05-09T07:02:45.824Z,62.81
2018-05-09T07:03:45.761Z,62.62
2018-05-09T07:04:45.702Z,62.52
2018-05-09T07:05:45.642Z,62.23
2018-05-09T07:06:45.789Z,62.42
2018-05-09T07:07:45.517Z,62.71
2018-05-09T07:08:45.462Z,62.62
2018-05-09T07:09:45.401Z,62.13
2018-05-09T07:10:45.334Z,61.08
2018-05-09T07:11:45.273Z,61.11
2018-05-09T07:12:45.214Z,60.63
2018-05-09T07:13:45.154Z,61.21
2018-05-09T07:14:45.092Z,60.35
2018-05-09T07:15:45.030Z,59.77
2018-05-09T07:16:44.972Z,60.05
2018-05-09T07:17:44.908Z,59.67
2018-05-09T07:18:44.847Z,60.05
2018-05-09T07:19:44.786Z,59.19
2018-05-09T07:20:44.727Z,59.00
2018-05-09T07:21:44.666Z,59.77
2018-05-09T07:22:44.603Z,59.70
2018-05-09T07:23:44.542Z,59.19
2018-05-09T07:24:44.482Z,60.08
2018-05-09T07:25:44.423Z,59.22
2018-05-09T07:26:44.363Z,59.19
2018-05-09T07:27:44.304Z,59.51
2018-05-09T07:28:44.238Z,59.00
2018-05-09T07:29:44.177Z,59.32
2018-05-09T07:30:44.122Z,59.22
2018-05-09T07:31:44.056Z,58.45
2018-05-09T07:32:44.001Z,58.20
2018-05-09T07:33:44.013Z,57.52
2018-05-09T07:34:43.897Z,56.66
2018-05-09T07:35:43.817Z,56.76
2018-05-09T07:36:43.754Z,56.56
2018-05-09T07:37:43.693Z,56.85
2018-05-09T07:38:43.635Z,56.76
2018-05-09T07:39:43.576Z,56.66
2018-05-09T07:40:43.512Z,56.76
2018-05-09T07:41:43.451Z,56.95
2018-05-09T07:42:43.397Z,56.85
2018-05-09T07:43:43.330Z,56.76
2018-05-09T07:44:43.270Z,56.85
2018-05-09T07:45:43.212Z,57.52
2018-05-09T07:46:43.148Z,57.81
2018-05-09T07:47:43.198Z,57.59
2018-05-09T07:48:43.029Z,58.45
2018-05-09T07:49:42.966Z,57.88
2018-05-09T07:50:42.911Z,57.59
2018-05-09T07:51:42.846Z,57.97
2018-05-09T07:52:42.789Z,57.97
2018-05-09T07:53:42.728Z,57.78
2018-05-09T07:54:42.668Z,58.45
2018-05-09T07:55:42.607Z,58.36
2018-05-09T07:56:42.551Z,58.36
2018-05-09T07:57:42.488Z,57.62
2018-05-09T07:58:42.426Z,57.23
2018-05-09T07:59:42.366Z,56.95
2018-05-09T08:00:42.308Z,57.23
2018-05-09T08:01:42.247Z,57.04
2018-05-09T08:02:42.190Z,56.76
2018-05-09T08:03:42.223Z,56.76
2018-05-09T08:04:42.067Z,55.63
2018-05-09T08:05:42.005Z,55.69
2018-05-09T08:06:41.941Z,55.41
2018-05-09T08:07:41.885Z,55.53
2018-05-09T08:08:41.825Z,55.15
2018-05-09T08:09:41.778Z,54.86
2018-05-09T08:10:41.706Z,55.34
2018-05-09T08:11:41.646Z,55.44
2018-05-09T08:12:41.586Z,55.34
2018-05-09T08:13:41.531Z,55.24
2018-05-09T08:14:41.469Z,53.70
2018-05-09T08:15:41.406Z,53.92
2018-05-09T08:16:41.347Z,53.74
2018-05-09T08:17:41.288Z,53.74
2018-05-09T08:18:41.228Z,53.83
2018-05-09T08:19:41.176Z,52.97
2018-05-09T08:20:41.111Z,52.75
2018-05-09T08:21:41.057Z,52.17
2018-05-09T08:22:40.993Z,52.36
2018-05-09T08:23:40.971Z,51.98
2018-05-09T08:24:40.871Z,51.88
2018-05-09T08:25:40.812Z,52.08
2018-05-09T08:26:40.752Z,51.81
2018-05-09T08:27:40.692Z,52.10
2018-05-09T08:28:40.632Z,52.20
2018-05-09T08:29:40.574Z,51.23
2018-05-09T08:30:40.514Z,51.33
2018-05-09T08:31:40.456Z,51.23
2018-05-09T08:32:40.395Z,51.23
2018-05-09T08:33:40.334Z,51.53
2018-05-09T08:34:40.277Z,51.33
2018-05-09T08:35:40.219Z,51.33
2018-05-09T08:36:40.226Z,51.33
2018-05-09T08:37:40.097Z,51.45
2018-05-09T08:38:40.041Z,51.81
2018-05-09T08:39:39.979Z,52.39
2018-05-09T08:40:39.921Z,52.39
2018-05-09T08:41:39.862Z,51.55
2018-05-09T08:42:39.802Z,52.12
2018-05-09T08:43:39.839Z,52.51
2018-05-09T08:44:39.684Z,51.84
2018-05-09T08:45:39.627Z,51.35
2018-05-09T08:46:39.566Z,50.97
2018-05-09T08:47:39.505Z,50.71
2018-05-09T08:48:39.448Z,50.61
2018-05-09T08:49:39.388Z,50.32
2018-05-09T08:50:39.330Z,49.84
2018-05-09T08:51:39.270Z,50.13
2018-05-09T08:52:39.211Z,50.61
2018-05-09T08:53:39.153Z,50.23
2018-05-09T08:54:39.097Z,50.23
2018-05-09T08:55:39.034Z,50.04
2018-05-09T08:56:38.976Z,50.04
2018-05-09T08:57:38.916Z,49.74
2018-05-09T08:58:38.857Z,48.97
2018-05-09T08:59:38.802Z,48.69
2018-05-09T09:00:38.741Z,49.36
2018-05-09T09:01:38.683Z,48.79
2018-05-09T09:02:38.623Z,48.97
2018-05-09T09:03:38.564Z,49.27
2018-05-09T09:04:38.505Z,48.88
2018-05-09T09:05:38.447Z,48.97
2018-05-09T09:06:38.389Z,48.21
2018-05-09T09:07:38.330Z,48.40
2018-05-09T09:08:38.272Z,48.33
2018-05-09T09:09:38.218Z,48.43
2018-05-09T09:10:38.155Z,47.94
2018-05-09T09:11:38.094Z,46.98
2018-05-09T09:12:38.040Z,46.98
2018-05-09T09:13:37.984Z,46.88
2018-05-09T09:14:37.923Z,46.59
2018-05-09T09:15:37.919Z,46.40
2018-05-09T09:16:37.803Z,46.31
2018-05-09T09:17:37.746Z,46.11
2018-05-09T09:18:37.778Z,46.31
2018-05-09T09:19:37.626Z,45.44
2018-05-09T09:20:37.608Z,45.44
2018-05-09T09:21:37.509Z,45.83
2018-05-09T09:22:37.451Z,45.05
2018-05-09T09:23:37.395Z,44.57
2018-05-09T09:24:37.334Z,44.40
2018-05-09T09:25:37.277Z,44.71
2018-05-09T09:26:37.219Z,44.23
2018-05-09T09:27:37.161Z,43.75
2018-05-09T09:28:37.107Z,43.48
2018-05-09T09:29:37.044Z,42.90
2018-05-09T09:30:36.986Z,43.21
2018-05-09T09:31:37.006Z,42.63
2018-05-09T09:32:36.935Z,42.56
2018-05-09T09:33:36.813Z,42.85
2018-05-09T09:34:36.754Z,42.08
2018-05-09T09:35:36.794Z,42.44
2018-05-09T09:36:36.640Z,42.56
2018-05-09T09:37:36.580Z,41.30
2018-05-09T09:38:36.523Z,41.02
2018-05-09T09:39:36.462Z,40.75
2018-05-09T09:40:36.408Z,39.03
2018-05-09T09:41:36.351Z,38.91
2018-05-09T09:42:36.290Z,40.05
2018-05-09T09:43:36.235Z,40.45
2018-05-09T09:44:36.177Z,40.19
2018-05-09T09:45:36.122Z,37.90
2018-05-09T09:46:36.064Z,36.96
2018-05-09T09:47:36.009Z,36.66
2018-05-09T09:48:35.952Z,36.10
2018-05-09T09:49:35.895Z,35.23
2018-05-09T09:50:35.900Z,36.74
2018-05-09T09:51:35.786Z,36.10
2018-05-09T09:52:35.729Z,34.96
2018-05-09T09:53:35.673Z,34.01
2018-05-09T09:54:35.618Z,34.12
2018-05-09T09:55:35.564Z,34.01
2018-05-09T09:56:35.531Z,34.09
2018-05-09T09:57:35.454Z,34.86
2018-05-09T09:58:35.400Z,35.41
2018-05-09T09:59:35.347Z,35.23
2018-05-09T10:00:35.291Z,34.77
2018-05-09T10:01:35.300Z,34.88
2018-05-09T10:02:35.184Z,34.65
2018-05-09T10:03:35.177Z,36.55
2018-05-09T10:04:35.109Z,37.32
2018-05-09T10:05:35.024Z,37.60
2018-05-09T10:06:34.970Z,38.64
2018-05-09T10:07:34.918Z,39.22
2018-05-09T10:08:34.862Z,38.29
2018-05-09T10:09:34.810Z,37.24
2018-05-09T10:10:34.756Z,36.58
2018-05-09T10:11:34.700Z,35.07
2018-05-09T10:12:34.649Z,34.01
2018-05-09T10:13:34.600Z,32.86
2018-05-09T10:14:34.541Z,32.49
2018-05-09T10:15:34.488Z,32.60
2018-05-09T10:16:34.435Z,31.92
2018-05-09T10:17:34.383Z,31.15
2018-05-09T10:18:34.327Z,31.34
2018-05-09T10:19:34.276Z,31.44
2018-05-09T10:20:34.224Z,31.24
2018-05-09T10:21:34.174Z,30.66
2018-05-09T10:22:34.120Z,30.38
2018-05-09T10:23:34.067Z,29.98
2018-05-09T10:24:34.016Z,29.98
2018-05-09T10:25:33.963Z,30.08
2018-05-09T10:26:33.911Z,30.85
2018-05-09T10:27:33.858Z,30.74
2018-05-09T10:28:33.812Z,31.04
2018-05-09T10:29:33.756Z,30.27
2018-05-09T10:30:33.705Z,30.66
2018-05-09T10:31:33.746Z,29.41
2018-05-09T10:32:33.600Z,28.66
2018-05-09T10:33:33.550Z,28.26
2018-05-09T10:34:33.498Z,28.57
2018-05-09T10:35:33.447Z,28.18
2018-05-09T10:36:33.395Z,28.57
2018-05-09T10:37:33.346Z,28.18
2018-05-09T10:38:33.293Z,27.80
2018-05-09T10:39:33.241Z,27.76
2018-05-09T10:40:33.190Z,28.63
2018-05-09T10:41:33.144Z,28.64
2018-05-09T10:42:33.087Z,28.65
2018-05-09T10:43:33.039Z,27.98
2018-05-09T10:44:32.985Z,28.45
2018-05-09T10:45:32.939Z,28.63
2018-05-09T10:46:32.884Z,29.21
2018-05-09T10:47:32.862Z,29.79
2018-05-09T10:48:32.781Z,29.79
2018-05-09T10:49:32.729Z,30.44
2018-05-09T10:50:32.681Z,32.06
2018-05-09T10:51:32.625Z,33.51
2018-05-09T10:52:32.576Z,32.44
2018-05-09T10:53:32.524Z,32.71
2018-05-09T10:54:32.471Z,33.49
2018-05-09T10:55:32.417Z,33.49
2018-05-09T10:56:32.367Z,32.73
2018-05-09T10:57:32.315Z,32.64
2018-05-09T10:58:32.262Z,32.91
2018-05-09T10:59:32.210Z,33.59
2018-05-09T11:00:32.160Z,33.12
2018-05-09T11:01:32.108Z,32.64
2018-05-09T11:02:32.053Z,31.57
2018-05-09T11:03:32.001Z,31.26
2018-05-09T11:04:31.949Z,32.41
2018-05-09T11:05:31.896Z,33.45
2018-05-09T11:06:31.843Z,33.75
2018-05-09T11:07:31.790Z,33.76
2018-05-09T11:08:31.735Z,33.95
2018-05-09T11:09:31.683Z,34.83
2018-05-09T11:10:31.653Z,35.18
2018-05-09T11:11:31.575Z,35.28
2018-05-09T11:12:31.523Z,35.86
2018-05-09T11:13:31.470Z,36.52
2018-05-09T11:14:31.622Z,37.29
2018-05-09T11:15:31.362Z,38.43
2018-05-09T11:16:31.305Z,38.62
2018-05-09T11:17:31.303Z,38.81
2018-05-09T11:18:31.202Z,38.91
2018-05-09T11:19:31.143Z,37.17
2018-05-09T11:20:31.091Z,36.88
2018-05-09T11:21:31.038Z,36.88
2018-05-09T11:22:30.982Z,36.79
2018-05-09T11:23:30.925Z,36.71
2018-05-09T11:24:30.887Z,36.71
2018-05-09T11:25:30.819Z,37.75
2018-05-09T11:26:30.763Z,37.46
2018-05-09T11:27:30.741Z,37.73
2018-05-09T11:28:30.651Z,38.60
2018-05-09T11:29:30.596Z,38.21
2018-05-09T11:30:30.542Z,38.21
2018-05-09T11:31:30.486Z,38.31
2018-05-09T11:32:30.432Z,38.31
2018-05-09T11:33:30.399Z,38.79
2018-05-09T11:34:30.321Z,38.70
2018-05-09T11:35:30.267Z,38.70
2018-05-09T11:36:30.210Z,38.41
2018-05-09T11:37:30.258Z,38.79
2018-05-09T11:38:30.100Z,38.89
2018-05-09T11:39:30.042Z,38.70
2018-05-09T11:40:29.987Z,38.41
2018-05-09T11:41:29.935Z,38.21
2018-05-09T11:42:29.877Z,38.31
2018-05-09T11:43:29.819Z,37.52
2018-05-09T11:44:29.762Z,37.52
2018-05-09T11:45:29.711Z,37.81
2018-05-09T11:46:29.651Z,38.10
2018-05-09T11:47:29.595Z,37.91
2018-05-09T11:48:29.538Z,38.10
2018-05-09T11:49:29.482Z,38.78
2018-05-09T11:50:29.426Z,38.21
2018-05-09T11:51:29.369Z,38.29
2018-05-09T11:52:29.316Z,37.62
2018-05-09T11:53:29.256Z,37.13
2018-05-09T11:54:29.200Z,38.01
2018-05-09T11:55:29.143Z,38.10
2018-05-09T11:56:29.085Z,38.87
2018-05-09T11:57:29.030Z,38.68
2018-05-09T11:58:28.976Z,38.68
2018-05-09T11:59:28.917Z,38.39
2018-05-09T12:00:28.861Z,38.78
2018-05-09T12:01:28.804Z,38.29
2018-05-09T12:02:28.803Z,38.39
2018-05-09T12:03:28.689Z,38.01
2018-05-09T12:04:28.634Z,37.33
2018-05-09T12:05:28.578Z,36.65
2018-05-09T12:06:28.529Z,37.33
2018-05-09T12:07:28.461Z,37.62
2018-05-09T12:08:28.407Z,37.43
2018-05-09T12:09:28.352Z,37.71
2018-05-09T12:10:28.466Z,37.81
2018-05-09T12:11:28.233Z,37.71
2018-05-09T12:12:28.177Z,37.71
2018-05-09T12:13:28.120Z,36.75
2018-05-09T12:14:28.065Z,36.75
2018-05-09T12:15:28.005Z,35.98
2018-05-09T12:16:27.950Z,36.36
2018-05-09T12:17:27.893Z,36.36
2018-05-09T12:18:27.836Z,36.46
2018-05-09T12:19:27.781Z,36.65
2018-05-09T12:20:27.721Z,36.46
2018-05-09T12:21:27.665Z,37.25
2018-05-09T12:22:27.608Z,36.87
2018-05-09T12:23:27.550Z,36.19
2018-05-09T12:24:27.551Z,35.53
2018-05-09T12:25:27.439Z,33.89
2018-05-09T12:26:27.380Z,33.89
2018-05-09T12:27:27.322Z,34.95
2018-05-09T12:28:27.266Z,34.48
2018-05-09T12:29:27.210Z,34.00
2018-05-09T12:30:27.152Z,33.52
2018-05-09T12:31:27.097Z,33.89
2018-05-09T12:32:27.040Z,34.18
2018-05-09T12:33:26.983Z,33.89
2018-05-09T12:34:26.929Z,34.66
2018-05-09T12:35:26.870Z,34.76
2018-05-09T12:36:26.858Z,33.81
2018-05-09T12:37:26.757Z,33.80
2018-05-09T12:38:26.700Z,34.86
2018-05-09T12:39:26.642Z,34.66
2018-05-09T12:40:26.584Z,34.56
2018-05-09T12:41:26.531Z,34.86
2018-05-09T12:42:26.476Z,35.72
2018-05-09T12:43:26.415Z,35.92
2018-05-09T12:44:26.358Z,36.48
2018-05-09T12:45:26.303Z,36.00
2018-05-09T12:46:26.245Z,34.55
2018-05-09T12:47:26.187Z,33.80
2018-05-09T12:48:26.160Z,33.22
2018-05-09T12:49:26.074Z,32.64
2018-05-09T12:50:26.017Z,32.54
2018-05-09T12:51:25.959Z,32.44